createdAt,value
2022-09-12T00:02:15.178Z,22.98
2022-09-12T00:04:42.077Z,23.11
2022-09-12T00:07:08.801Z,23.28
2022-09-12T00:09:35.786Z,23.19
2022-09-12T00:12:03.066Z,23.08
2022-09-12T00:14:32.425Z,22.44
2022-09-12T00:17:00.392Z,23.26
2022-09-12T00:19:28.818Z,23.38
2022-09-12T00:22:00.593Z,23.09
2022-09-12T00:24:27.539Z,22.83
2022-09-12T00:26:54.274Z,23.38
2022-09-12T00:29:22.873Z,23.29
2022-09-12T00:31:50.060Z,22.97
2022-09-12T00:34:17.398Z,23.09
2022-09-12T00:36:44.345Z,23.38
2022-09-12T00:39:15.261Z,23.41
2022-09-12T00:41:41.965Z,23.48
2022-09-12T00:44:27.290Z,23.78
2022-09-12T00:47:31.183Z,23.77
2022-09-12T00:50:07.781Z,23.95
2022-09-12T00:53:09.731Z,23.85
2022-09-12T00:55:44.357Z,23.72
2022-09-12T00:58:20.221Z,23.22
2022-09-12T01:00:47.718Z,23.80
2022-09-12T01:03:17.274Z,23.70
2022-09-12T01:05:56.235Z,23.64
2022-09-12T01:08:24.211Z,23.17
2022-09-12T01:10:55.846Z,23.78
2022-09-12T01:13:26.530Z,23.53
2022-09-12T01:15:56.959Z,22.62
2022-09-12T01:18:26.898Z,23.89
2022-09-12T01:21:01.222Z,23.97
2022-09-12T01:23:40.241Z,24.04
2022-09-12T01:26:41.728Z,24.01
2022-09-12T01:29:43.766Z,23.93
2022-09-12T01:32:31.747Z,23.91
2022-09-12T01:35:08.576Z,23.81
2022-09-12T01:37:38.414Z,23.83
2022-09-12T01:40:16.688Z,23.84
2022-09-12T01:43:19.001Z,24.00
2022-09-12T01:45:56.783Z,23.93
2022-09-12T01:48:36.148Z,23.98
2022-09-12T01:51:47.255Z,24.06
2022-09-12T01:54:30.815Z,24.10
2022-09-12T01:57:04.419Z,24.09
2022-09-12T01:59:39.488Z,24.18
2022-09-12T02:02:14.151Z,24.28
2022-09-12T02:05:00.765Z,24.21
2022-09-12T02:07:51.805Z,24.22
2022-09-12T02:10:32.707Z,24.21
2022-09-12T02:13:16.141Z,24.21
2022-09-12T02:15:56.543Z,24.12
2022-09-12T02:18:26.275Z,24.22
2022-09-12T02:20:54.647Z,24.24
2022-09-12T02:23:26.921Z,24.17
2022-09-12T02:25:59.172Z,24.11
2022-09-12T02:28:31.301Z,24.34
2022-09-12T02:31:01.112Z,24.51
2022-09-12T02:33:36.754Z,24.17
2022-09-12T02:36:24.110Z,24.44
2022-09-12T02:38:51.757Z,24.40
2022-09-12T02:41:20.875Z,24.34
2022-09-12T02:43:50.657Z,24.36
2022-09-12T02:46:27.289Z,24.26
2022-09-12T02:48:55.634Z,24.28
2022-09-12T02:51:23.790Z,24.21
2022-09-12T02:53:51.428Z,24.16
2022-09-12T02:56:28.415Z,23.93
2022-09-12T02:58:59.914Z,23.82
2022-09-12T03:01:29.881Z,24.01
2022-09-12T03:04:24.491Z,23.76
2022-09-12T03:07:05.477Z,23.77
2022-09-12T03:09:53.461Z,23.68
2022-09-12T03:12:50.041Z,23.60
2022-09-12T03:15:32.323Z,23.60
2022-09-12T03:18:12.173Z,23.69
2022-09-12T03:21:11.391Z,23.58
2022-09-12T03:23:55.977Z,23.64
2022-09-12T03:26:58.558Z,23.52
2022-09-12T03:29:27.918Z,23.78
2022-09-12T03:31:58.355Z,23.83
2022-09-12T03:34:27.501Z,23.74
2022-09-12T03:36:58.338Z,23.92
2022-09-12T03:39:26.971Z,23.79
2022-09-12T03:41:55.595Z,23.84
2022-09-12T03:44:22.354Z,23.83
2022-09-12T03:46:49.330Z,23.63
2022-09-12T03:49:16.399Z,23.57
2022-09-12T03:51:43.679Z,23.85
2022-09-12T03:54:11.166Z,23.83
2022-09-12T03:56:38.110Z,23.96
2022-09-12T03:59:06.883Z,24.03
2022-09-12T04:01:34.570Z,24.05
2022-09-12T04:04:01.888Z,24.20
2022-09-12T04:06:29.140Z,24.02
2022-09-12T04:08:56.353Z,23.99
2022-09-12T04:11:24.309Z,24.01
2022-09-12T04:13:51.656Z,24.16
2022-09-12T04:16:19.126Z,24.17
2022-09-12T04:18:47.203Z,23.91
2022-09-12T04:21:17.201Z,23.97
2022-09-12T04:23:44.312Z,24.02
2022-09-12T04:26:12.037Z,24.09
2022-09-12T04:28:39.326Z,23.94
2022-09-12T04:31:09.093Z,23.74
2022-09-12T04:33:36.838Z,23.71
2022-09-12T04:36:12.590Z,23.28
2022-09-12T04:38:39.592Z,23.03
2022-09-12T04:41:12.526Z,23.06
2022-09-12T04:43:40.036Z,22.88
2022-09-12T04:46:08.956Z,22.68
2022-09-12T04:48:35.932Z,22.56
2022-09-12T04:51:15.927Z,22.61
2022-09-12T04:53:43.420Z,22.59
2022-09-12T04:56:12.539Z,22.60
2022-09-12T04:58:39.779Z,22.41
2022-09-12T05:01:21.895Z,22.40
2022-09-12T05:03:50.746Z,22.42
2022-09-12T05:06:20.921Z,22.53
2022-09-12T05:08:47.928Z,22.41
2022-09-12T05:11:20.521Z,22.68
2022-09-12T05:13:51.087Z,22.70
2022-09-12T05:16:19.198Z,22.46
2022-09-12T05:18:47.373Z,22.94
2022-09-12T05:21:16.726Z,23.01
2022-09-12T05:23:43.820Z,22.85
2022-09-12T05:26:15.655Z,22.95
2022-09-12T05:28:43.806Z,22.85
2022-09-12T05:31:15.271Z,22.86
2022-09-12T05:33:44.100Z,22.75
2022-09-12T05:36:16.284Z,22.72
2022-09-12T05:38:43.316Z,22.76
2022-09-12T05:41:18.956Z,22.63
2022-09-12T05:43:55.382Z,23.02
2022-09-12T05:46:25.403Z,23.15
2022-09-12T05:48:56.359Z,23.16
2022-09-12T05:51:29.029Z,22.98
2022-09-12T05:53:59.435Z,23.07
2022-09-12T05:56:28.527Z,23.04
2022-09-12T05:59:01.414Z,23.00
2022-09-12T06:01:36.675Z,22.86
2022-09-12T06:04:07.005Z,23.07
2022-09-12T06:06:39.097Z,22.98
2022-09-12T06:09:06.983Z,23.08
2022-09-12T06:11:35.865Z,22.91
2022-09-12T06:14:03.114Z,23.16
2022-09-12T06:16:34.461Z,22.81
2022-09-12T06:19:04.221Z,23.14
2022-09-12T06:21:35.528Z,22.95
2022-09-12T06:24:02.805Z,22.70
2022-09-12T06:26:30.612Z,22.75
2022-09-12T06:29:00.184Z,22.71
2022-09-12T06:31:29.623Z,22.46
2022-09-12T06:33:57.805Z,22.62
2022-09-12T06:36:27.887Z,22.62
2022-09-12T06:39:03.789Z,22.35
2022-09-12T06:41:32.837Z,22.59
2022-09-12T06:44:00.856Z,22.39
2022-09-12T06:46:28.734Z,22.17
2022-09-12T06:49:00.819Z,22.37
2022-09-12T06:51:28.766Z,22.11
2022-09-12T06:53:57.251Z,22.35
2022-09-12T06:56:26.893Z,22.45
2022-09-12T06:58:56.605Z,22.21
2022-09-12T07:01:24.931Z,22.58
2022-09-12T07:03:54.555Z,22.67
2022-09-12T07:06:24.438Z,22.77
2022-09-12T07:08:51.552Z,22.60
2022-09-12T07:11:26.933Z,22.76
2022-09-12T07:13:56.476Z,22.73
2022-09-12T07:16:24.065Z,22.87
2022-09-12T07:18:53.269Z,22.81
2022-09-12T07:21:20.908Z,22.86
2022-09-12T07:23:48.458Z,22.79
2022-09-12T07:26:17.870Z,22.76
2022-09-12T07:28:45.273Z,22.95
2022-09-12T07:31:15.168Z,23.06
2022-09-12T07:33:43.172Z,23.18
2022-09-12T07:36:18.502Z,23.23
2022-09-12T07:38:47.003Z,23.37
2022-09-12T07:41:17.141Z,23.26
2022-09-12T07:43:44.007Z,23.40
2022-09-12T07:46:11.962Z,23.30
2022-09-12T07:48:39.456Z,23.34
2022-09-12T07:51:09.519Z,23.39
2022-09-12T07:53:42.189Z,23.24
2022-09-12T07:56:10.523Z,23.49
2022-09-12T07:58:39.275Z,23.55
2022-09-12T08:01:13.294Z,23.47
2022-09-12T08:03:41.599Z,23.14
2022-09-12T08:06:14.268Z,23.30
2022-09-12T08:08:42.145Z,23.18
2022-09-12T08:11:14.545Z,23.32
2022-09-12T08:13:42.756Z,23.46
2022-09-12T08:16:13.933Z,23.53
2022-09-12T08:18:41.711Z,23.60
2022-09-12T08:21:15.182Z,23.24
2022-09-12T08:23:43.344Z,23.56
2022-09-12T08:26:11.594Z,23.25
2022-09-12T08:28:41.363Z,22.83
2022-09-12T08:31:09.742Z,22.99
2022-09-12T08:33:36.909Z,22.68
2022-09-12T08:36:05.593Z,22.48
2022-09-12T08:38:33.478Z,22.71
2022-09-12T08:41:18.248Z,22.89
2022-09-12T08:44:22.264Z,22.83
2022-09-12T08:47:14.184Z,22.71
2022-09-12T08:50:05.729Z,22.79
2022-09-12T08:52:53.995Z,22.44
2022-09-12T08:55:23.905Z,22.22
2022-09-12T08:57:52.181Z,22.02
2022-09-12T09:00:20.511Z,21.74
2022-09-12T09:02:55.301Z,21.40
2022-09-12T09:05:54.676Z,20.63
2022-09-12T09:08:40.420Z,20.72
2022-09-12T09:11:58.847Z,20.64
2022-09-12T09:14:49.384Z,20.27
2022-09-12T09:17:25.959Z,20.11
2022-09-12T09:20:04.748Z,20.33
2022-09-12T09:22:48.237Z,20.51
2022-09-12T09:25:24.498Z,19.86
2022-09-12T09:28:02.506Z,20.62
2022-09-12T09:30:30.508Z,20.36
2022-09-12T09:33:01.141Z,21.14
2022-09-12T09:35:57.022Z,22.12
2022-09-12T09:38:25.763Z,23.15
2022-09-12T09:40:59.045Z,23.97
2022-09-12T09:43:30.089Z,24.22
2022-09-12T09:46:01.841Z,23.82
2022-09-12T09:48:35.316Z,23.83
2022-09-12T09:51:07.389Z,23.64
2022-09-12T09:54:01.537Z,23.75
2022-09-12T09:56:34.428Z,23.95
2022-09-12T09:59:17.705Z,24.09
2022-09-12T10:01:55.151Z,24.07
2022-09-12T10:04:28.269Z,23.94
2022-09-12T10:07:00.518Z,24.21
2022-09-12T10:09:35.384Z,24.28
2022-09-12T10:12:29.042Z,24.42
2022-09-12T10:15:00.877Z,24.69
2022-09-12T10:17:51.167Z,24.54
2022-09-12T10:20:40.672Z,24.57
2022-09-12T10:23:29.838Z,23.30
2022-09-12T10:26:01.558Z,23.05
2022-09-12T10:28:48.318Z,22.87
2022-09-12T10:31:29.178Z,22.69
2022-09-12T10:33:59.912Z,23.28
2022-09-12T10:36:36.658Z,23.25
2022-09-12T10:39:04.975Z,24.07
2022-09-12T10:41:39.928Z,24.18
2022-09-12T10:44:17.024Z,24.50
2022-09-12T10:46:44.198Z,24.34
2022-09-12T10:49:22.548Z,24.46
2022-09-12T10:51:50.270Z,24.72
2022-09-12T10:54:21.247Z,24.64
2022-09-12T10:57:18.405Z,24.79
2022-09-12T10:59:45.105Z,24.96
2022-09-12T11:02:45.797Z,24.79
2022-09-12T11:05:18.433Z,25.03
2022-09-12T11:08:02.483Z,24.98
2022-09-12T11:10:48.124Z,24.82
2022-09-12T11:13:24.620Z,24.90
2022-09-12T11:16:00.323Z,24.95
2022-09-12T11:18:33.130Z,25.01
2022-09-12T11:21:23.557Z,24.58
2022-09-12T11:24:15.654Z,24.41
2022-09-12T11:26:54.835Z,24.14
2022-09-12T11:29:27.673Z,24.54
2022-09-12T11:32:18.982Z,24.82
2022-09-12T11:35:17.228Z,24.74
2022-09-12T11:37:47.365Z,25.13
2022-09-12T11:40:44.290Z,25.27
2022-09-12T11:43:32.492Z,25.40
2022-09-12T11:46:20.159Z,25.08
2022-09-12T11:49:14.510Z,25.20
2022-09-12T11:52:05.967Z,25.26
2022-09-12T11:54:41.765Z,25.36
2022-09-12T11:57:37.178Z,25.27
2022-09-12T12:00:18.690Z,25.17
2022-09-12T12:03:06.739Z,25.70
2022-09-12T12:05:52.749Z,26.63
2022-09-12T12:08:22.619Z,26.32
2022-09-12T12:10:52.265Z,26.96
2022-09-12T12:13:28.811Z,26.82
2022-09-12T12:16:04.266Z,26.79
2022-09-12T12:18:37.266Z,26.63
2022-09-12T12:21:28.453Z,27.20
2022-09-12T12:24:07.523Z,28.37
2022-09-12T12:26:43.080Z,28.47
2022-09-12T12:29:19.822Z,28.07
2022-09-12T12:31:59.522Z,27.65
2022-09-12T12:34:44.094Z,26.67
2022-09-12T12:37:20.076Z,26.62
2022-09-12T12:39:50.802Z,26.56
2022-09-12T12:42:35.111Z,26.38
2022-09-12T12:45:17.505Z,26.47
2022-09-12T12:48:11.967Z,26.13
2022-09-12T12:50:40.027Z,25.62
2022-09-12T12:53:19.302Z,25.23
2022-09-12T12:55:50.771Z,24.82
2022-09-12T12:58:26.360Z,25.57
2022-09-12T13:01:15.014Z,24.23
2022-09-12T13:03:46.506Z,25.31
2022-09-12T13:06:32.277Z,25.90
2022-09-12T13:09:08.394Z,26.04
2022-09-12T13:11:42.723Z,25.51
2022-09-12T13:14:50.210Z,25.96
2022-09-12T13:17:35.899Z,26.14
2022-09-12T13:20:29.589Z,25.60
2022-09-12T13:22:57.610Z,25.80
2022-09-12T13:25:34.861Z,25.53
2022-09-12T13:28:12.164Z,24.94
2022-09-12T13:30:55.230Z,24.65
2022-09-12T13:33:43.826Z,24.22
2022-09-12T13:36:25.694Z,23.69
2022-09-12T13:39:16.714Z,23.33
2022-09-12T13:42:22.260Z,23.13
2022-09-12T13:44:53.290Z,23.05
2022-09-12T13:47:27.390Z,22.93
2022-09-12T13:49:55.852Z,22.87
2022-09-12T13:52:26.473Z,22.90
2022-09-12T13:54:58.549Z,23.05
2022-09-12T13:57:32.821Z,23.46
2022-09-12T14:00:02.394Z,23.77
2022-09-12T14:02:29.820Z,23.83
2022-09-12T14:05:12.369Z,23.64
2022-09-12T14:08:08.558Z,23.56
2022-09-12T14:10:39.574Z,23.04
2022-09-12T14:13:21.766Z,23.03
2022-09-12T14:15:52.752Z,22.81
2022-09-12T14:18:36.579Z,22.82
2022-09-12T14:21:27.657Z,22.58
2022-09-12T14:23:55.387Z,22.75
2022-09-12T14:26:23.666Z,22.66
2022-09-12T14:28:51.466Z,22.70
2022-09-12T14:31:24.821Z,22.82
2022-09-12T14:33:57.314Z,23.12
2022-09-12T14:36:30.633Z,23.75
2022-09-12T14:39:02.554Z,23.55
2022-09-12T14:41:39.043Z,24.00
2022-09-12T14:44:10.866Z,24.26
2022-09-12T14:46:39.764Z,24.42
2022-09-12T14:49:29.715Z,24.68
2022-09-12T14:52:01.237Z,25.13
2022-09-12T14:54:27.981Z,25.35
2022-09-12T14:57:28.081Z,25.52
2022-09-12T15:00:10.049Z,25.37
2022-09-12T15:02:37.286Z,24.60
2022-09-12T15:05:04.100Z,25.53
2022-09-12T15:07:38.572Z,25.26
2022-09-12T15:10:05.894Z,25.52
2022-09-12T15:12:32.918Z,24.94
2022-09-12T15:15:21.335Z,25.54
2022-09-12T15:17:48.096Z,25.52
2022-09-12T15:20:15.842Z,25.61
2022-09-12T15:22:43.421Z,25.64
2022-09-12T15:25:12.654Z,25.49
2022-09-12T15:27:41.045Z,25.83
2022-09-12T15:30:10.505Z,25.83
2022-09-12T15:32:37.780Z,25.93
2022-09-12T15:35:14.791Z,25.55
2022-09-12T15:37:41.718Z,25.76
2022-09-12T15:40:10.090Z,25.03
2022-09-12T15:42:37.243Z,24.54
2022-09-12T15:45:19.162Z,24.03
2022-09-12T15:47:46.878Z,24.10
2022-09-12T15:50:14.193Z,24.26
2022-09-12T15:52:41.518Z,24.57
2022-09-12T15:55:35.127Z,24.48
2022-09-12T15:58:06.883Z,24.31
2022-09-12T16:00:34.518Z,24.69
2022-09-12T16:03:01.586Z,24.71
2022-09-12T16:05:29.691Z,24.55
2022-09-12T16:07:56.518Z,24.23
2022-09-12T16:10:27.971Z,23.99
2022-09-12T16:12:55.237Z,23.90
2022-09-12T16:15:26.022Z,24.20
2022-09-12T16:17:54.262Z,23.77
2022-09-12T16:20:22.416Z,23.71
2022-09-12T16:22:49.720Z,24.70
2022-09-12T16:25:17.732Z,24.11
2022-09-12T16:27:44.953Z,24.26
2022-09-12T16:30:13.393Z,24.29
2022-09-12T16:32:40.776Z,24.36
2022-09-12T16:35:08.416Z,24.26
2022-09-12T16:37:35.654Z,23.69
2022-09-12T16:40:04.187Z,22.76
2022-09-12T16:42:31.442Z,21.80
2022-09-12T16:44:58.457Z,21.67
2022-09-12T16:47:25.254Z,21.69
2022-09-12T16:49:52.209Z,21.88
2022-09-12T16:52:19.497Z,22.19
2022-09-12T16:54:46.282Z,22.46
2022-09-12T16:57:13.130Z,22.58
2022-09-12T16:59:39.985Z,22.57
2022-09-12T17:02:07.717Z,22.79
2022-09-12T17:04:34.552Z,22.75
2022-09-12T17:07:01.439Z,22.88
2022-09-12T17:09:29.569Z,22.58
2022-09-12T17:11:56.655Z,23.01
2022-09-12T17:14:24.511Z,23.06
2022-09-12T17:16:52.307Z,23.04
2022-09-12T17:19:28.307Z,22.93
2022-09-12T17:22:16.824Z,22.46
2022-09-12T17:24:43.898Z,22.48
2022-09-12T17:27:10.800Z,23.34
2022-09-12T17:29:38.751Z,23.29
2022-09-12T17:32:05.694Z,23.24
2022-09-12T17:34:32.513Z,23.13
2022-09-12T17:36:59.242Z,23.31
2022-09-12T17:39:26.356Z,23.49
2022-09-12T17:41:54.785Z,23.27
2022-09-12T17:44:24.358Z,23.16
2022-09-12T17:46:51.342Z,22.92
2022-09-12T17:49:22.290Z,22.70
2022-09-12T17:51:49.922Z,22.50
2022-09-12T17:54:18.582Z,22.12
2022-09-12T17:56:47.415Z,22.16
2022-09-12T17:59:16.857Z,22.18
2022-09-12T18:02:02.732Z,22.00
2022-09-12T18:04:30.080Z,22.60
2022-09-12T18:06:57.800Z,22.76
2022-09-12T18:09:28.612Z,22.89
2022-09-12T18:11:55.750Z,22.19
2022-09-12T18:14:22.689Z,22.00
2022-09-12T18:16:49.941Z,21.15
2022-09-12T18:19:17.256Z,20.25
2022-09-12T18:21:44.782Z,21.76
2022-09-12T18:24:12.027Z,21.51
2022-09-12T18:26:39.232Z,21.28
2022-09-12T18:29:06.552Z,21.09
2022-09-12T18:31:33.501Z,21.36
2022-09-12T18:34:01.120Z,21.53
2022-09-12T18:36:28.981Z,21.65
2022-09-12T18:38:58.944Z,21.61
2022-09-12T18:41:26.701Z,21.65
2022-09-12T18:43:57.718Z,21.59
2022-09-12T18:46:24.643Z,21.37
2022-09-12T18:48:51.944Z,21.49
2022-09-12T18:51:21.014Z,21.47
2022-09-12T18:53:53.273Z,21.64
2022-09-12T18:56:21.598Z,21.72
2022-09-12T18:58:54.213Z,21.68
2022-09-12T19:01:27.434Z,21.83
2022-09-12T19:03:55.304Z,21.94
2022-09-12T19:06:27.520Z,21.89
2022-09-12T19:08:56.394Z,21.77
2022-09-12T19:11:24.527Z,21.68
2022-09-12T19:13:53.289Z,21.49
2022-09-12T19:16:23.201Z,21.51
2022-09-12T19:18:52.412Z,21.79
2022-09-12T19:21:39.041Z,21.87
2022-09-12T19:24:10.195Z,21.79
2022-09-12T19:26:39.202Z,22.10
2022-09-12T19:29:06.682Z,22.02
2022-09-12T19:31:34.114Z,22.15
2022-09-12T19:34:03.011Z,22.29
2022-09-12T19:36:47.245Z,22.41
2022-09-12T19:39:16.502Z,22.22
2022-09-12T19:41:44.133Z,22.26
2022-09-12T19:44:11.772Z,22.46
2022-09-12T19:46:38.910Z,22.32
2022-09-12T19:49:05.868Z,22.53
2022-09-12T19:51:32.586Z,22.67
2022-09-12T19:53:59.454Z,22.78
2022-09-12T19:56:26.301Z,22.84
2022-09-12T19:58:56.426Z,22.11
2022-09-12T20:01:28.772Z,21.70
2022-09-12T20:03:57.433Z,21.36
2022-09-12T20:06:24.689Z,21.43
2022-09-12T20:08:51.635Z,21.47
2022-09-12T20:11:21.649Z,21.80
2022-09-12T20:13:48.387Z,22.09
2022-09-12T20:16:25.633Z,22.06
2022-09-12T20:18:55.260Z,22.17
2022-09-12T20:21:25.537Z,22.01
2022-09-12T20:23:52.743Z,22.26
2022-09-12T20:26:20.733Z,22.27
2022-09-12T20:28:48.737Z,22.51
2022-09-12T20:31:16.563Z,22.55
2022-09-12T20:33:45.810Z,22.51
2022-09-12T20:36:17.283Z,22.53
2022-09-12T20:38:50.248Z,22.64
2022-09-12T20:41:18.222Z,22.64
2022-09-12T20:43:45.044Z,22.67
2022-09-12T20:46:12.297Z,22.37
2022-09-12T20:48:39.487Z,22.43
2022-09-12T20:51:07.358Z,22.53
2022-09-12T20:53:35.402Z,22.65
2022-09-12T20:56:03.476Z,22.42
2022-09-12T20:58:30.350Z,22.64
2022-09-12T21:00:57.266Z,22.31
2022-09-12T21:03:25.681Z,22.44
2022-09-12T21:05:52.884Z,21.98
2022-09-12T21:08:19.669Z,22.06
2022-09-12T21:10:46.805Z,22.63
2022-09-12T21:13:13.901Z,22.67
2022-09-12T21:15:41.881Z,22.86
2022-09-12T21:18:09.044Z,22.89
2022-09-12T21:20:35.864Z,22.71
2022-09-12T21:23:02.687Z,22.80
2022-09-12T21:25:30.555Z,22.72
2022-09-12T21:27:57.845Z,22.67
2022-09-12T21:30:24.664Z,22.67
2022-09-12T21:32:51.953Z,22.84
2022-09-12T21:35:18.681Z,22.72
2022-09-12T21:37:45.419Z,22.93
2022-09-12T21:40:12.432Z,22.91
2022-09-12T21:42:39.169Z,22.79
2022-09-12T21:45:06.425Z,22.82
2022-09-12T21:47:33.268Z,22.66
2022-09-12T21:50:00.136Z,22.63
2022-09-12T21:52:27.694Z,22.66
2022-09-12T21:54:54.716Z,22.81
2022-09-12T21:57:21.799Z,22.84
2022-09-12T21:59:48.524Z,22.75
2022-09-12T22:02:16.422Z,22.28
2022-09-12T22:04:43.573Z,22.76
2022-09-12T22:07:11.290Z,21.75
2022-09-12T22:09:38.313Z,22.36
2022-09-12T22:12:07.876Z,23.05
2022-09-12T22:14:39.471Z,22.86
2022-09-12T22:17:06.643Z,21.65
2022-09-12T22:19:33.531Z,21.87
2022-09-12T22:22:19.010Z,21.73
2022-09-12T22:24:46.228Z,22.60
2022-09-12T22:27:13.209Z,22.50
2022-09-12T22:29:40.109Z,21.93
2022-09-12T22:32:06.804Z,22.71
2022-09-12T22:34:33.597Z,22.79
2022-09-12T22:37:00.984Z,22.82
2022-09-12T22:39:27.789Z,22.62
2022-09-12T22:41:54.555Z,22.67
2022-09-12T22:44:21.435Z,22.84
2022-09-12T22:46:48.574Z,22.60
2022-09-12T22:49:15.385Z,22.93
2022-09-12T22:51:42.621Z,22.98
2022-09-12T22:54:10.729Z,22.89
2022-09-12T22:56:40.234Z,23.06
2022-09-12T22:59:07.449Z,23.07
2022-09-12T23:01:35.532Z,23.08
2022-09-12T23:04:05.512Z,23.10
2022-09-12T23:06:32.468Z,23.17
2022-09-12T23:08:59.522Z,23.31
2022-09-12T23:11:27.985Z,23.28
2022-09-12T23:13:54.828Z,23.21
2022-09-12T23:16:24.542Z,23.16
2022-09-12T23:18:52.130Z,23.18
2022-09-12T23:21:21.338Z,23.15
2022-09-12T23:23:48.811Z,23.20
2022-09-12T23:26:24.698Z,22.92
2022-09-12T23:28:59.820Z,23.09
2022-09-12T23:31:30.394Z,23.17
2022-09-12T23:33:59.094Z,23.29
2022-09-12T23:36:26.277Z,23.06
2022-09-12T23:38:54.456Z,23.16
2022-09-12T23:41:22.286Z,23.29
2022-09-12T23:43:49.466Z,23.20
2022-09-12T23:46:18.245Z,23.14
2022-09-12T23:48:45.547Z,23.37
2022-09-12T23:51:12.651Z,23.43
2022-09-12T23:53:40.213Z,23.21
2022-09-12T23:56:07.432Z,23.24
2022-09-12T23:58:34.206Z,23.29
